sensor_id;sensor_type;location;lat;lon;timestamp;temperature;humidity
68556;HTU21D;55544;51.032;5.866;2022-09-09T00:04:35;18.08;80.22
68556;HTU21D;55544;51.032;5.866;2022-09-09T00:15:05;17.92;80.52
68556;HTU21D;55544;51.032;5.866;2022-09-09T00:17:36;17.79;80.89
68556;HTU21D;55544;51.032;5.866;2022-09-09T00:20:21;17.76;81.13
68556;HTU21D;55544;51.032;5.866;2022-09-09T00:23:08;17.83;80.91
68556;HTU21D;55544;51.032;5.866;2022-09-09T00:25:56;17.88;80.38
68556;HTU21D;55544;51.032;5.866;2022-09-09T00:28:27;17.88;80.11
68556;HTU21D;55544;51.032;5.866;2022-09-09T00:30:56;17.89;79.91
68556;HTU21D;55544;51.032;5.866;2022-09-09T00:33:26;17.81;79.98
68556;HTU21D;55544;51.032;5.866;2022-09-09T00:36:00;17.77;80.09
68556;HTU21D;55544;51.032;5.866;2022-09-09T00:38:43;17.80;79.83
68556;HTU21D;55544;51.032;5.866;2022-09-09T00:41:22;17.91;79.27
68556;HTU21D;55544;51.032;5.866;2022-09-09T00:46:43;17.83;79.30
68556;HTU21D;55544;51.032;5.866;2022-09-09T00:57:18;17.65;80.14
68556;HTU21D;55544;51.032;5.866;2022-09-09T01:00:31;17.58;80.56
68556;HTU21D;55544;51.032;5.866;2022-09-09T01:06:11;17.37;81.27
68556;HTU21D;55544;51.032;5.866;2022-09-09T01:11:28;17.30;81.58
68556;HTU21D;55544;51.032;5.866;2022-09-09T01:17:02;17.19;82.16
68556;HTU21D;55544;51.032;5.866;2022-09-09T01:22:26;17.09;82.53
68556;HTU21D;55544;51.032;5.866;2022-09-09T01:27:59;17.04;82.82
68556;HTU21D;55544;51.032;5.866;2022-09-09T01:30:27;17.06;82.91
68556;HTU21D;55544;51.032;5.866;2022-09-09T01:32:56;16.98;83.50
68556;HTU21D;55544;51.032;5.866;2022-09-09T01:35:44;16.88;83.83
68556;HTU21D;55544;51.032;5.866;2022-09-09T01:38:12;16.93;83.79
68556;HTU21D;55544;51.032;5.866;2022-09-09T01:40:38;16.90;83.58
68556;HTU21D;55544;51.032;5.866;2022-09-09T01:43:05;16.78;84.39
68556;HTU21D;55544;51.032;5.866;2022-09-09T01:45:33;16.73;84.81
68556;HTU21D;55544;51.032;5.866;2022-09-09T01:48:00;16.79;84.48
68556;HTU21D;55544;51.032;5.866;2022-09-09T01:50:40;16.88;84.30
68556;HTU21D;55544;51.032;5.866;2022-09-09T01:53:07;16.95;84.01
68556;HTU21D;55544;51.032;5.866;2022-09-09T01:55:38;17.09;83.56
68556;HTU21D;55544;51.032;5.866;2022-09-09T02:01:05;17.06;83.49
68556;HTU21D;55544;51.032;5.866;2022-09-09T02:03:33;17.07;83.69
68556;HTU21D;55544;51.032;5.866;2022-09-09T02:06:25;17.10;83.53
68556;HTU21D;55544;51.032;5.866;2022-09-09T02:08:57;17.24;83.10
68556;HTU21D;55544;51.032;5.866;2022-09-09T02:11:27;17.25;83.00
68556;HTU21D;55544;51.032;5.866;2022-09-09T02:14:11;17.23;83.07
68556;HTU21D;55544;51.032;5.866;2022-09-09T02:16:47;17.22;83.04
68556;HTU21D;55544;51.032;5.866;2022-09-09T02:19:32;17.31;82.84
68556;HTU21D;55544;51.032;5.866;2022-09-09T02:22:09;17.18;83.36
68556;HTU21D;55544;51.032;5.866;2022-09-09T02:24:38;17.19;83.46
68556;HTU21D;55544;51.032;5.866;2022-09-09T02:27:20;17.29;83.05
68556;HTU21D;55544;51.032;5.866;2022-09-09T02:29:50;17.24;83.14
68556;HTU21D;55544;51.032;5.866;2022-09-09T02:32:23;17.25;83.14
68556;HTU21D;55544;51.032;5.866;2022-09-09T02:35:07;17.28;83.10
68556;HTU21D;55544;51.032;5.866;2022-09-09T02:37:39;17.28;82.94
68556;HTU21D;55544;51.032;5.866;2022-09-09T02:40:10;17.33;82.94
68556;HTU21D;55544;51.032;5.866;2022-09-09T02:42:43;17.30;83.06
68556;HTU21D;55544;51.032;5.866;2022-09-09T02:45:12;17.32;83.07
68556;HTU21D;55544;51.032;5.866;2022-09-09T02:48:03;17.29;83.21
68556;HTU21D;55544;51.032;5.866;2022-09-09T02:50:35;17.33;83.22
68556;HTU21D;55544;51.032;5.866;2022-09-09T02:53:29;17.31;83.45
68556;HTU21D;55544;51.032;5.866;2022-09-09T02:56:04;17.21;83.80
68556;HTU21D;55544;51.032;5.866;2022-09-09T02:58:36;17.31;83.52
68556;HTU21D;55544;51.032;5.866;2022-09-09T03:01:05;17.25;83.71
68556;HTU21D;55544;51.032;5.866;2022-09-09T03:03:31;17.20;83.82
68556;HTU21D;55544;51.032;5.866;2022-09-09T03:06:00;17.18;83.79
68556;HTU21D;55544;51.032;5.866;2022-09-09T03:08:27;17.21;83.74
68556;HTU21D;55544;51.032;5.866;2022-09-09T03:10:54;17.19;83.86
68556;HTU21D;55544;51.032;5.866;2022-09-09T03:13:20;17.16;83.85
68556;HTU21D;55544;51.032;5.866;2022-09-09T03:15:48;17.14;84.00
68556;HTU21D;55544;51.032;5.866;2022-09-09T03:18:16;17.05;84.40
68556;HTU21D;55544;51.032;5.866;2022-09-09T03:20:46;17.10;84.32
68556;HTU21D;55544;51.032;5.866;2022-09-09T03:23:17;17.14;84.17
68556;HTU21D;55544;51.032;5.866;2022-09-09T03:25:50;17.08;84.43
68556;HTU21D;55544;51.032;5.866;2022-09-09T03:28:21;17.21;83.94
68556;HTU21D;55544;51.032;5.866;2022-09-09T03:30:48;17.16;83.93
68556;HTU21D;55544;51.032;5.866;2022-09-09T03:33:14;17.20;83.93
68556;HTU21D;55544;51.032;5.866;2022-09-09T03:35:46;17.20;84.13
68556;HTU21D;55544;51.032;5.866;2022-09-09T03:38:18;17.14;84.02
68556;HTU21D;55544;51.032;5.866;2022-09-09T03:40:51;17.26;83.66
68556;HTU21D;55544;51.032;5.866;2022-09-09T03:43:26;17.23;83.48
68556;HTU21D;55544;51.032;5.866;2022-09-09T03:45:53;17.35;83.19
68556;HTU21D;55544;51.032;5.866;2022-09-09T03:48:24;17.45;82.67
68556;HTU21D;55544;51.032;5.866;2022-09-09T03:50:53;17.39;82.74
68556;HTU21D;55544;51.032;5.866;2022-09-09T03:53:21;17.38;82.66
68556;HTU21D;55544;51.032;5.866;2022-09-09T03:55:49;17.39;82.63
68556;HTU21D;55544;51.032;5.866;2022-09-09T03:58:16;17.35;82.73
68556;HTU21D;55544;51.032;5.866;2022-09-09T04:00:59;17.36;82.68
68556;HTU21D;55544;51.032;5.866;2022-09-09T04:03:27;17.35;82.68
68556;HTU21D;55544;51.032;5.866;2022-09-09T04:05:54;17.45;82.39
68556;HTU21D;55544;51.032;5.866;2022-09-09T04:08:22;17.34;82.61
68556;HTU21D;55544;51.032;5.866;2022-09-09T04:10:49;17.39;82.39
68556;HTU21D;55544;51.032;5.866;2022-09-09T04:13:17;17.41;82.20
68556;HTU21D;55544;51.032;5.866;2022-09-09T04:15:54;17.37;82.47
68556;HTU21D;55544;51.032;5.866;2022-09-09T04:18:22;17.41;82.35
68556;HTU21D;55544;51.032;5.866;2022-09-09T04:20:49;17.37;82.44
68556;HTU21D;55544;51.032;5.866;2022-09-09T04:23:19;17.48;82.16
68556;HTU21D;55544;51.032;5.866;2022-09-09T04:25:51;17.46;82.17
68556;HTU21D;55544;51.032;5.866;2022-09-09T04:28:19;17.56;81.86
68556;HTU21D;55544;51.032;5.866;2022-09-09T04:30:46;17.40;82.15
68556;HTU21D;55544;51.032;5.866;2022-09-09T04:33:13;17.51;81.78
68556;HTU21D;55544;51.032;5.866;2022-09-09T04:35:45;17.44;82.09
68556;HTU21D;55544;51.032;5.866;2022-09-09T04:38:15;17.48;81.85
68556;HTU21D;55544;51.032;5.866;2022-09-09T04:40:47;17.53;81.74
68556;HTU21D;55544;51.032;5.866;2022-09-09T04:43:14;17.62;81.00
68556;HTU21D;55544;51.032;5.866;2022-09-09T04:45:42;17.55;81.37
68556;HTU21D;55544;51.032;5.866;2022-09-09T04:48:09;17.38;81.72
68556;HTU21D;55544;51.032;5.866;2022-09-09T04:50:37;17.36;81.88
68556;HTU21D;55544;51.032;5.866;2022-09-09T04:53:04;17.46;81.68
68556;HTU21D;55544;51.032;5.866;2022-09-09T04:55:35;17.45;81.53
68556;HTU21D;55544;51.032;5.866;2022-09-09T04:58:08;17.24;82.07
68556;HTU21D;55544;51.032;5.866;2022-09-09T05:00:35;17.28;82.26
68556;HTU21D;55544;51.032;5.866;2022-09-09T05:03:05;17.33;82.09
68556;HTU21D;55544;51.032;5.866;2022-09-09T05:05:33;17.43;81.56
68556;HTU21D;55544;51.032;5.866;2022-09-09T05:08:03;17.38;81.67
68556;HTU21D;55544;51.032;5.866;2022-09-09T05:10:31;17.36;81.61
68556;HTU21D;55544;51.032;5.866;2022-09-09T05:12:58;17.31;81.88
68556;HTU21D;55544;51.032;5.866;2022-09-09T05:15:27;17.26;82.07
68556;HTU21D;55544;51.032;5.866;2022-09-09T05:17:59;17.18;82.32
68556;HTU21D;55544;51.032;5.866;2022-09-09T05:20:28;17.10;82.63
68556;HTU21D;55544;51.032;5.866;2022-09-09T05:22:55;17.22;82.40
68556;HTU21D;55544;51.032;5.866;2022-09-09T05:25:23;17.19;82.37
68556;HTU21D;55544;51.032;5.866;2022-09-09T05:27:52;17.11;82.68
68556;HTU21D;55544;51.032;5.866;2022-09-09T05:30:19;17.06;82.78
68556;HTU21D;55544;51.032;5.866;2022-09-09T05:32:45;16.98;82.99
68556;HTU21D;55544;51.032;5.866;2022-09-09T05:35:13;17.13;82.49
68556;HTU21D;55544;51.032;5.866;2022-09-09T05:37:39;17.07;82.75
68556;HTU21D;55544;51.032;5.866;2022-09-09T05:40:05;17.20;82.17
68556;HTU21D;55544;51.032;5.866;2022-09-09T05:42:31;17.09;82.42
68556;HTU21D;55544;51.032;5.866;2022-09-09T05:44:58;17.06;82.56
68556;HTU21D;55544;51.032;5.866;2022-09-09T05:47:24;17.05;82.46
68556;HTU21D;55544;51.032;5.866;2022-09-09T05:49:54;17.09;82.18
68556;HTU21D;55544;51.032;5.866;2022-09-09T05:52:20;17.07;82.40
68556;HTU21D;55544;51.032;5.866;2022-09-09T05:54:46;17.11;82.29
68556;HTU21D;55544;51.032;5.866;2022-09-09T05:57:12;17.23;81.77
68556;HTU21D;55544;51.032;5.866;2022-09-09T05:59:37;17.22;81.26
68556;HTU21D;55544;51.032;5.866;2022-09-09T06:02:04;17.38;80.62
68556;HTU21D;55544;51.032;5.866;2022-09-09T06:04:34;17.44;80.52
68556;HTU21D;55544;51.032;5.866;2022-09-09T06:07:01;17.45;80.29
68556;HTU21D;55544;51.032;5.866;2022-09-09T06:09:27;17.45;80.19
68556;HTU21D;55544;51.032;5.866;2022-09-09T06:11:53;17.25;80.62
68556;HTU21D;55544;51.032;5.866;2022-09-09T06:14:21;17.20;81.06
68556;HTU21D;55544;51.032;5.866;2022-09-09T06:16:49;17.16;81.20
68556;HTU21D;55544;51.032;5.866;2022-09-09T06:19:21;17.14;81.32
68556;HTU21D;55544;51.032;5.866;2022-09-09T06:21:47;17.34;80.99
68556;HTU21D;55544;51.032;5.866;2022-09-09T06:24:13;17.50;80.78
68556;HTU21D;55544;51.032;5.866;2022-09-09T06:26:43;17.69;80.13
68556;HTU21D;55544;51.032;5.866;2022-09-09T06:29:15;17.72;80.40
68556;HTU21D;55544;51.032;5.866;2022-09-09T06:31:41;17.80;80.47
68556;HTU21D;55544;51.032;5.866;2022-09-09T06:34:13;17.80;80.13
68556;HTU21D;55544;51.032;5.866;2022-09-09T06:36:43;17.74;79.75
68556;HTU21D;55544;51.032;5.866;2022-09-09T06:39:11;17.78;79.95
68556;HTU21D;55544;51.032;5.866;2022-09-09T06:41:38;17.78;79.33
68556;HTU21D;55544;51.032;5.866;2022-09-09T06:44:07;17.81;79.98
68556;HTU21D;55544;51.032;5.866;2022-09-09T06:46:39;17.92;79.19
68556;HTU21D;55544;51.032;5.866;2022-09-09T06:49:06;17.95;78.85
68556;HTU21D;55544;51.032;5.866;2022-09-09T06:51:37;17.91;78.53
68556;HTU21D;55544;51.032;5.866;2022-09-09T06:54:11;17.93;77.93
68556;HTU21D;55544;51.032;5.866;2022-09-09T06:56:39;17.88;78.10
68556;HTU21D;55544;51.032;5.866;2022-09-09T06:59:14;17.91;77.92
68556;HTU21D;55544;51.032;5.866;2022-09-09T07:01:42;17.93;78.03
68556;HTU21D;55544;51.032;5.866;2022-09-09T07:04:13;17.97;77.89
68556;HTU21D;55544;51.032;5.866;2022-09-09T07:06:43;17.83;77.86
68556;HTU21D;55544;51.032;5.866;2022-09-09T07:09:14;17.76;78.21
68556;HTU21D;55544;51.032;5.866;2022-09-09T07:11:51;17.74;78.29
68556;HTU21D;55544;51.032;5.866;2022-09-09T07:14:20;17.79;78.82
68556;HTU21D;55544;51.032;5.866;2022-09-09T07:16:51;17.99;78.47
68556;HTU21D;55544;51.032;5.866;2022-09-09T07:19:18;18.10;77.32
68556;HTU21D;55544;51.032;5.866;2022-09-09T07:21:47;17.99;78.20
68556;HTU21D;55544;51.032;5.866;2022-09-09T07:24:16;18.10;77.72
68556;HTU21D;55544;51.032;5.866;2022-09-09T07:26:43;18.30;76.89
68556;HTU21D;55544;51.032;5.866;2022-09-09T07:29:10;18.44;77.30
68556;HTU21D;55544;51.032;5.866;2022-09-09T07:31:40;18.42;77.35
68556;HTU21D;55544;51.032;5.866;2022-09-09T07:34:10;18.53;76.37
68556;HTU21D;55544;51.032;5.866;2022-09-09T07:36:38;18.58;75.18
68556;HTU21D;55544;51.032;5.866;2022-09-09T07:39:09;18.81;74.83
68556;HTU21D;55544;51.032;5.866;2022-09-09T07:41:39;18.70;75.26
68556;HTU21D;55544;51.032;5.866;2022-09-09T07:44:09;19.01;74.50
68556;HTU21D;55544;51.032;5.866;2022-09-09T07:46:37;19.18;73.21
68556;HTU21D;55544;51.032;5.866;2022-09-09T07:49:08;19.32;73.57
68556;HTU21D;55544;51.032;5.866;2022-09-09T07:51:39;19.10;73.32
68556;HTU21D;55544;51.032;5.866;2022-09-09T07:54:09;19.27;72.75
68556;HTU21D;55544;51.032;5.866;2022-09-09T07:56:38;19.32;72.41
68556;HTU21D;55544;51.032;5.866;2022-09-09T07:59:05;19.40;71.90
68556;HTU21D;55544;51.032;5.866;2022-09-09T08:01:35;19.32;71.58
68556;HTU21D;55544;51.032;5.866;2022-09-09T08:04:07;19.26;71.96
68556;HTU21D;55544;51.032;5.866;2022-09-09T08:06:39;19.30;72.19
68556;HTU21D;55544;51.032;5.866;2022-09-09T08:09:09;19.29;72.14
68556;HTU21D;55544;51.032;5.866;2022-09-09T08:11:38;19.24;71.55
68556;HTU21D;55544;51.032;5.866;2022-09-09T08:14:04;19.23;71.52
68556;HTU21D;55544;51.032;5.866;2022-09-09T08:16:32;19.13;71.99
68556;HTU21D;55544;51.032;5.866;2022-09-09T08:18:59;19.10;71.67
68556;HTU21D;55544;51.032;5.866;2022-09-09T08:21:28;18.97;70.52
68556;HTU21D;55544;51.032;5.866;2022-09-09T08:23:57;19.01;72.30
68556;HTU21D;55544;51.032;5.866;2022-09-09T08:26:26;19.22;72.36
68556;HTU21D;55544;51.032;5.866;2022-09-09T08:28:56;19.29;72.12
68556;HTU21D;55544;51.032;5.866;2022-09-09T08:31:38;19.28;72.40
68556;HTU21D;55544;51.032;5.866;2022-09-09T08:34:06;19.48;71.82
68556;HTU21D;55544;51.032;5.866;2022-09-09T08:36:36;19.37;71.20
68556;HTU21D;55544;51.032;5.866;2022-09-09T08:39:05;19.47;70.93
68556;HTU21D;55544;51.032;5.866;2022-09-09T08:56:03;20.15;69.13
68556;HTU21D;55544;51.032;5.866;2022-09-09T08:58:47;20.32;67.78
68556;HTU21D;55544;51.032;5.866;2022-09-09T09:09:22;20.16;67.82
68556;HTU21D;55544;51.032;5.866;2022-09-09T09:11:57;20.11;68.55
68556;HTU21D;55544;51.032;5.866;2022-09-09T09:14:33;20.05;67.57
68556;HTU21D;55544;51.032;5.866;2022-09-09T09:17:24;19.94;67.39
68556;HTU21D;55544;51.032;5.866;2022-09-09T09:19:51;19.85;68.48
68556;HTU21D;55544;51.032;5.866;2022-09-09T09:25:21;19.51;69.49
68556;HTU21D;55544;51.032;5.866;2022-09-09T09:28:15;19.65;69.58
68556;HTU21D;55544;51.032;5.866;2022-09-09T09:35:58;20.04;67.62
68556;HTU21D;55544;51.032;5.866;2022-09-09T09:38:28;20.04;67.82
68556;HTU21D;55544;51.032;5.866;2022-09-09T09:40:58;19.76;68.91
68556;HTU21D;55544;51.032;5.866;2022-09-09T09:43:31;19.82;68.65
68556;HTU21D;55544;51.032;5.866;2022-09-09T09:45:59;19.70;68.82
68556;HTU21D;55544;51.032;5.866;2022-09-09T09:48:27;19.63;69.39
68556;HTU21D;55544;51.032;5.866;2022-09-09T09:53:26;19.46;69.61
68556;HTU21D;55544;51.032;5.866;2022-09-09T09:55:59;19.37;70.95
68556;HTU21D;55544;51.032;5.866;2022-09-09T10:01:39;19.41;70.64
68556;HTU21D;55544;51.032;5.866;2022-09-09T10:04:18;19.29;71.58
68556;HTU21D;55544;51.032;5.866;2022-09-09T10:06:47;19.30;71.90
68556;HTU21D;55544;51.032;5.866;2022-09-09T10:09:26;19.09;73.18
68556;HTU21D;55544;51.032;5.866;2022-09-09T10:14:48;19.22;74.68
68556;HTU21D;55544;51.032;5.866;2022-09-09T10:20:17;19.47;72.09
68556;HTU21D;55544;51.032;5.866;2022-09-09T10:22:51;19.35;72.24
68556;HTU21D;55544;51.032;5.866;2022-09-09T10:35:08;19.70;70.98
68556;HTU21D;55544;51.032;5.866;2022-09-09T10:37:35;19.70;70.83
68556;HTU21D;55544;51.032;5.866;2022-09-09T10:40:42;19.60;71.10
68556;HTU21D;55544;51.032;5.866;2022-09-09T10:49:19;19.80;69.60
68556;HTU21D;55544;51.032;5.866;2022-09-09T10:57:13;19.86;69.46
68556;HTU21D;55544;51.032;5.866;2022-09-09T10:59:47;19.60;69.74
68556;HTU21D;55544;51.032;5.866;2022-09-09T11:02:28;19.74;70.29
68556;HTU21D;55544;51.032;5.866;2022-09-09T11:05:02;19.91;69.61
68556;HTU21D;55544;51.032;5.866;2022-09-09T11:07:37;19.88;70.14
68556;HTU21D;55544;51.032;5.866;2022-09-09T11:12:49;19.54;73.02
68556;HTU21D;55544;51.032;5.866;2022-09-09T11:15:35;19.24;74.19
68556;HTU21D;55544;51.032;5.866;2022-09-09T11:18:04;19.16;75.15
68556;HTU21D;55544;51.032;5.866;2022-09-09T11:20:31;19.13;76.64
68556;HTU21D;55544;51.032;5.866;2022-09-09T11:23:40;19.12;77.61
68556;HTU21D;55544;51.032;5.866;2022-09-09T11:26:14;19.13;78.12
68556;HTU21D;55544;51.032;5.866;2022-09-09T11:28:56;19.20;77.98
68556;HTU21D;55544;51.032;5.866;2022-09-09T11:31:52;19.27;78.12
68556;HTU21D;55544;51.032;5.866;2022-09-09T11:40:25;19.57;78.29
68556;HTU21D;55544;51.032;5.866;2022-09-09T11:43:12;19.82;77.39
68556;HTU21D;55544;51.032;5.866;2022-09-09T11:45:42;19.94;75.22
68556;HTU21D;55544;51.032;5.866;2022-09-09T11:48:35;19.89;73.30
68556;HTU21D;55544;51.032;5.866;2022-09-09T11:51:06;19.91;75.09
68556;HTU21D;55544;51.032;5.866;2022-09-09T11:53:55;19.99;75.65
68556;HTU21D;55544;51.032;5.866;2022-09-09T11:59:03;20.29;75.75
68556;HTU21D;55544;51.032;5.866;2022-09-09T12:06:53;20.50;72.09
68556;HTU21D;55544;51.032;5.866;2022-09-09T12:12:07;19.99;72.44
68556;HTU21D;55544;51.032;5.866;2022-09-09T12:17:31;20.10;73.35
68556;HTU21D;55544;51.032;5.866;2022-09-09T12:31:24;20.74;72.73
68556;HTU21D;55544;51.032;5.866;2022-09-09T12:33:52;20.66;71.24
68556;HTU21D;55544;51.032;5.866;2022-09-09T12:36:29;20.72;71.30
68556;HTU21D;55544;51.032;5.866;2022-09-09T12:39:08;20.66;71.16
68556;HTU21D;55544;51.032;5.866;2022-09-09T12:41:35;20.53;70.68
68556;HTU21D;55544;51.032;5.866;2022-09-09T12:44:06;20.14;71.64
68556;HTU21D;55544;51.032;5.866;2022-09-09T12:46:43;20.06;72.78
68556;HTU21D;55544;51.032;5.866;2022-09-09T12:51:56;19.88;73.47
68556;HTU21D;55544;51.032;5.866;2022-09-09T12:54:23;19.85;74.73
68556;HTU21D;55544;51.032;5.866;2022-09-09T12:56:49;19.84;74.93
68556;HTU21D;55544;51.032;5.866;2022-09-09T12:59:42;19.85;75.57
68556;HTU21D;55544;51.032;5.866;2022-09-09T13:02:34;19.79;75.35
68556;HTU21D;55544;51.032;5.866;2022-09-09T13:05:15;19.45;72.29
68556;HTU21D;55544;51.032;5.866;2022-09-09T13:07:42;18.93;71.84
68556;HTU21D;55544;51.032;5.866;2022-09-09T13:10:13;18.58;72.29
68556;HTU21D;55544;51.032;5.866;2022-09-09T13:12:40;18.24;73.48
68556;HTU21D;55544;51.032;5.866;2022-09-09T13:15:29;18.08;74.99
68556;HTU21D;55544;51.032;5.866;2022-09-09T13:18:02;18.02;75.90
68556;HTU21D;55544;51.032;5.866;2022-09-09T13:20:31;17.97;76.19
68556;HTU21D;55544;51.032;5.866;2022-09-09T13:22:57;17.93;76.79
68556;HTU21D;55544;51.032;5.866;2022-09-09T13:25:26;17.94;77.55
68556;HTU21D;55544;51.032;5.866;2022-09-09T13:27:58;17.94;77.80
68556;HTU21D;55544;51.032;5.866;2022-09-09T13:30:28;17.94;78.57
68556;HTU21D;55544;51.032;5.866;2022-09-09T13:36:12;18.05;79.48
68556;HTU21D;55544;51.032;5.866;2022-09-09T13:41:34;18.25;80.16
68556;HTU21D;55544;51.032;5.866;2022-09-09T13:44:02;18.47;80.41
68556;HTU21D;55544;51.032;5.866;2022-09-09T13:46:42;18.71;79.91
68556;HTU21D;55544;51.032;5.866;2022-09-09T13:51:49;19.06;78.94
68556;HTU21D;55544;51.032;5.866;2022-09-09T13:54:18;19.17;79.23
68556;HTU21D;55544;51.032;5.866;2022-09-09T13:56:45;19.36;79.51
68556;HTU21D;55544;51.032;5.866;2022-09-09T13:59:19;19.55;79.53
68556;HTU21D;55544;51.032;5.866;2022-09-09T14:01:49;19.84;80.40
68556;HTU21D;55544;51.032;5.866;2022-09-09T14:04:18;20.26;79.44
68556;HTU21D;55544;51.032;5.866;2022-09-09T14:06:47;20.65;78.73
68556;HTU21D;55544;51.032;5.866;2022-09-09T14:09:15;21.03;77.52
68556;HTU21D;55544;51.032;5.866;2022-09-09T14:11:42;21.33;76.62
68556;HTU21D;55544;51.032;5.866;2022-09-09T14:14:08;21.67;76.21
68556;HTU21D;55544;51.032;5.866;2022-09-09T14:16:34;21.94;74.11
68556;HTU21D;55544;51.032;5.866;2022-09-09T14:19:00;22.14;74.80
68556;HTU21D;55544;51.032;5.866;2022-09-09T14:21:27;22.33;73.94
68556;HTU21D;55544;51.032;5.866;2022-09-09T14:23:53;22.46;71.13
68556;HTU21D;55544;51.032;5.866;2022-09-09T14:26:20;22.53;71.25
68556;HTU21D;55544;51.032;5.866;2022-09-09T14:28:47;22.71;69.61
68556;HTU21D;55544;51.032;5.866;2022-09-09T14:31:13;22.81;68.84
68556;HTU21D;55544;51.032;5.866;2022-09-09T14:33:40;22.88;68.68
68556;HTU21D;55544;51.032;5.866;2022-09-09T14:36:06;22.92;68.01
68556;HTU21D;55544;51.032;5.866;2022-09-09T14:38:35;23.08;67.66
68556;HTU21D;55544;51.032;5.866;2022-09-09T14:41:06;23.05;65.85
68556;HTU21D;55544;51.032;5.866;2022-09-09T14:43:32;22.70;65.24
68556;HTU21D;55544;51.032;5.866;2022-09-09T14:46:05;22.38;66.24
68556;HTU21D;55544;51.032;5.866;2022-09-09T14:48:31;22.39;68.07
68556;HTU21D;55544;51.032;5.866;2022-09-09T14:51:11;22.52;68.36
68556;HTU21D;55544;51.032;5.866;2022-09-09T14:53:39;22.72;66.91
68556;HTU21D;55544;51.032;5.866;2022-09-09T14:56:11;22.92;67.17
68556;HTU21D;55544;51.032;5.866;2022-09-09T14:58:37;23.10;65.98
68556;HTU21D;55544;51.032;5.866;2022-09-09T15:01:08;23.12;65.40
68556;HTU21D;55544;51.032;5.866;2022-09-09T15:03:42;22.99;64.42
68556;HTU21D;55544;51.032;5.866;2022-09-09T15:06:11;22.67;64.95
68556;HTU21D;55544;51.032;5.866;2022-09-09T15:08:40;22.29;66.04
68556;HTU21D;55544;51.032;5.866;2022-09-09T15:11:06;22.19;65.82
68556;HTU21D;55544;51.032;5.866;2022-09-09T15:13:36;21.96;66.97
68556;HTU21D;55544;51.032;5.866;2022-09-09T15:18:34;21.82;67.64
68556;HTU21D;55544;51.032;5.866;2022-09-09T15:21:04;21.79;67.54
68556;HTU21D;55544;51.032;5.866;2022-09-09T15:23:34;21.78;67.65
68556;HTU21D;55544;51.032;5.866;2022-09-09T15:26:01;21.79;66.29
68556;HTU21D;55544;51.032;5.866;2022-09-09T15:28:28;21.80;66.68
68556;HTU21D;55544;51.032;5.866;2022-09-09T15:30:54;22.08;66.75
68556;HTU21D;55544;51.032;5.866;2022-09-09T15:33:21;22.46;66.29
68556;HTU21D;55544;51.032;5.866;2022-09-09T15:35:47;22.79;65.53
68556;HTU21D;55544;51.032;5.866;2022-09-09T15:38:13;22.90;63.02
68556;HTU21D;55544;51.032;5.866;2022-09-09T15:40:39;22.92;62.77
68556;HTU21D;55544;51.032;5.866;2022-09-09T15:43:06;22.88;62.66
68556;HTU21D;55544;51.032;5.866;2022-09-09T15:45:33;22.79;63.18
68556;HTU21D;55544;51.032;5.866;2022-09-09T15:48:00;22.61;63.43
68556;HTU21D;55544;51.032;5.866;2022-09-09T15:50:26;22.39;62.82
68556;HTU21D;55544;51.032;5.866;2022-09-09T15:52:52;22.14;63.56
68556;HTU21D;55544;51.032;5.866;2022-09-09T15:55:19;21.96;65.14
68556;HTU21D;55544;51.032;5.866;2022-09-09T15:57:51;21.84;65.31
68556;HTU21D;55544;51.032;5.866;2022-09-09T16:00:19;21.76;65.51
68556;HTU21D;55544;51.032;5.866;2022-09-09T16:02:48;21.66;66.10
68556;HTU21D;55544;51.032;5.866;2022-09-09T16:05:13;21.63;66.25
68556;HTU21D;55544;51.032;5.866;2022-09-09T16:07:39;21.67;65.26
68556;HTU21D;55544;51.032;5.866;2022-09-09T16:10:05;21.60;65.99
68556;HTU21D;55544;51.032;5.866;2022-09-09T16:12:31;21.48;66.33
68556;HTU21D;55544;51.032;5.866;2022-09-09T16:14:58;21.40;66.17
68556;HTU21D;55544;51.032;5.866;2022-09-09T16:17:25;21.36;66.39
68556;HTU21D;55544;51.032;5.866;2022-09-09T16:19:50;21.28;66.81
68556;HTU21D;55544;51.032;5.866;2022-09-09T16:22:16;21.20;67.24
68556;HTU21D;55544;51.032;5.866;2022-09-09T16:24:43;21.15;67.59
68556;HTU21D;55544;51.032;5.866;2022-09-09T16:27:10;21.21;67.36
68556;HTU21D;55544;51.032;5.866;2022-09-09T16:29:36;21.18;67.55
68556;HTU21D;55544;51.032;5.866;2022-09-09T16:32:02;21.34;67.72
68556;HTU21D;55544;51.032;5.866;2022-09-09T16:34:29;21.50;67.18
68556;HTU21D;55544;51.032;5.866;2022-09-09T16:36:54;21.69;66.17
68556;HTU21D;55544;51.032;5.866;2022-09-09T16:39:21;21.70;65.01
68556;HTU21D;55544;51.032;5.866;2022-09-09T16:41:48;21.79;64.49
68556;HTU21D;55544;51.032;5.866;2022-09-09T16:44:16;21.77;64.95
68556;HTU21D;55544;51.032;5.866;2022-09-09T16:46:44;21.74;64.07
68556;HTU21D;55544;51.032;5.866;2022-09-09T16:49:12;21.63;63.82
68556;HTU21D;55544;51.032;5.866;2022-09-09T16:51:44;21.53;64.45
68556;HTU21D;55544;51.032;5.866;2022-09-09T16:54:11;21.44;65.01
68556;HTU21D;55544;51.032;5.866;2022-09-09T16:56:41;21.38;64.43
68556;HTU21D;55544;51.032;5.866;2022-09-09T16:59:11;21.05;65.31
68556;HTU21D;55544;51.032;5.866;2022-09-09T17:01:38;21.02;65.59
68556;HTU21D;55544;51.032;5.866;2022-09-09T17:04:09;20.80;66.02
68556;HTU21D;55544;51.032;5.866;2022-09-09T17:06:35;20.72;66.27
68556;HTU21D;55544;51.032;5.866;2022-09-09T17:09:05;20.57;66.60
68556;HTU21D;55544;51.032;5.866;2022-09-09T17:11:32;20.46;67.05
68556;HTU21D;55544;51.032;5.866;2022-09-09T17:13:58;20.41;67.56
68556;HTU21D;55544;51.032;5.866;2022-09-09T17:16:27;20.36;67.88
68556;HTU21D;55544;51.032;5.866;2022-09-09T17:18:55;20.33;68.19
68556;HTU21D;55544;51.032;5.866;2022-09-09T17:21:24;20.25;68.72
68556;HTU21D;55544;51.032;5.866;2022-09-09T17:23:52;20.21;69.04
68556;HTU21D;55544;51.032;5.866;2022-09-09T17:26:23;20.15;69.14
68556;HTU21D;55544;51.032;5.866;2022-09-09T17:28:49;20.11;69.49
68556;HTU21D;55544;51.032;5.866;2022-09-09T17:31:17;20.06;69.91
68556;HTU21D;55544;51.032;5.866;2022-09-09T17:33:45;20.05;70.16
68556;HTU21D;55544;51.032;5.866;2022-09-09T17:36:15;19.99;70.68
68556;HTU21D;55544;51.032;5.866;2022-09-09T17:38:41;20.00;70.86
68556;HTU21D;55544;51.032;5.866;2022-09-09T17:41:15;19.98;71.13
68556;HTU21D;55544;51.032;5.866;2022-09-09T17:43:42;19.98;71.28
68556;HTU21D;55544;51.032;5.866;2022-09-09T17:46:16;19.96;71.42
68556;HTU21D;55544;51.032;5.866;2022-09-09T17:48:44;19.94;71.54
68556;HTU21D;55544;51.032;5.866;2022-09-09T17:51:16;19.95;71.43
68556;HTU21D;55544;51.032;5.866;2022-09-09T17:53:49;19.90;71.73
68556;HTU21D;55544;51.032;5.866;2022-09-09T17:56:18;19.91;72.13
68556;HTU21D;55544;51.032;5.866;2022-09-09T17:58:48;19.86;72.79
68556;HTU21D;55544;51.032;5.866;2022-09-09T18:01:18;19.82;73.51
68556;HTU21D;55544;51.032;5.866;2022-09-09T18:03:45;19.65;74.60
68556;HTU21D;55544;51.032;5.866;2022-09-09T18:06:15;19.69;74.61
68556;HTU21D;55544;51.032;5.866;2022-09-09T18:08:46;19.79;74.48